Foster, Oklahoma
Current Conditions -  °F | °C
As of 7:35 PM on Friday 24 Oct 2014 (Local Time) from KPVJ Reporting Station
Clear Clear  
Wind Chill: 74°   Ceiling: Unl
Heat Index: 74°   Visibility: 10mi
Dew Point: 61°   Wind: 3mph
Humidity: 64%   Direction: 170°S
Pressure: 30.04"   Gusts: NA
Location:  34.62°N, 97.49°W
Report Text: KPVJ 250035Z AUTO 17003KT 10SM CLR 24/16 A3004 RMK AO2 T02350163
Loading
Personal Weather Stations






























Interactive Weather Map
Tropical Storm Tracking
New forecast layout! Learn more

10-Day Weather Forecast

Advertisements
Track Severe Weather on mobile